AirNav   Everest Fuels
 
 822 users online  

42CN Peg Field Airport
Reedley, California, USA

GOING TO REEDLEY?


FAA INFORMATION EFFECTIVE 26 MARCH 2020

Location

FAA Identifier: 42CN
Lat/Long: 36-42-32.8190N 119-24-17.4490W
36-42.546983N 119-24.290817W
36.7091164,-119.4048469
(estimated)
Elevation: 460 ft. / 140 m (estimated)
Variation: 15E (1985)
From city: 7 miles N of REEDLEY, CA
Time zone: UTC -7 (UTC -8 during Standard Time)
Zip code: 93654

Airport Operations

Airport use: Private use. Permission required prior to landing
Activation date: 03/1961
Control tower: no
ARTCC: OAKLAND CENTER
FSS: RANCHO MURIETA FLIGHT SERVICE STATION
Attendance: UNATNDD
Wind indicator: yes
Segmented circle: no
Lights: FOR LIRL RWY 09/27 CALL 559-974-8303.

Airport Communications

WX AWOS-3PT at O32 (3 nm SW): 120.175 (559-637-9453)
WX ASOS at FAT (16 nm W): PHONE 559-255-3413

Nearby radio navigation aids

VOR radial/distance  VOR name  Freq  Var
VISr354/20.8VISALIA VOR/DME109.4016E
CZQr103/22.3CLOVIS VORTAC112.9015E
FRAr142/25.4FRIANT VORTAC115.6017E

 
NDB name  Hdg/Dist  Freq  Var  ID
SALYER FARMS353/39.120516ECOR -.-. --- .-.

Airport Services

Airframe service: NONE
Powerplant service: NONE

Runway Information

Runway 9/27

Dimensions: 3110 x 60 ft. / 948 x 18 m
Surface: gravel/treated
Runway edge lights: low intensity
RUNWAY 9  RUNWAY 27
Traffic pattern: leftleft

Airport Ownership and Management from official FAA records

Ownership: Privately-owned
Owner: BARNEY BARNES
1751 S. ALTA AVENUE
REEDLEY, CA 93654
Phone 559-974-8303
Manager: BARNEY BARNES
1751 S. ALTA AVENUE
REEDLEY, CA 93654
Phone 559-974-8303

Airport Operational Statistics

Aircraft based on the field: 3
Single engine airplanes: 2
Multi engine airplanes: 1
    

Additional Remarks

A33 OILED.
FOR CD CTC FRESNO APCH AT 559-487-5405.

Instrument Procedures

There are no published instrument procedures at 42CN.

Some nearby airports with instrument procedures:

O32 - Reedley Municipal Airport (3 nm SW)
KFAT - Fresno Yosemite International Airport (16 nm W)
KFCH - Fresno Chandler Executive Airport (20 nm W)
KVIS - Visalia Municipal Airport (23 nm S)
KHJO - Hanford Municipal Airport (26 nm SW)
 
Loc | Ops | Rwys | IFR | FBO | Links
Com | Nav | Svcs | Stats | Notes
Area around 42CN (Peg Field Airport)
 
Road maps at: MapQuest Bing Google
 
Aerial photo
WARNING: Photo may not be current or correct
Aerial photo of 42CN (Peg Field Airport)
Do you have a better or more recent aerial photo of Peg Field Airport that you would like to share? If so, please send us your photo.

 
Sectional chart

 
Airport distance calculator
Flying to Peg Field Airport? Find the distance to fly.

From to 42CN

Sunrise and sunset
Times for 04-Apr-2020
 Local
(UTC-7)
 Zulu
(UTC)
Morning civil twilight06:1213:12
Sunrise06:3913:39
Sunset19:2202:22
Evening civil twilight19:4802:48

Current date and time
Zulu (UTC)  04-Apr-2020 22:14:56
Local (UTC-7)  04-Apr-2020 15:14:56
 
METAR
KO32 
3nm SW 
042155Z AUTO 23003KT 10SM 20/04 A2986 RMK AO2
KFAT 
16nm W 
042153Z 30007KT 10SM BKN110 BKN150 19/02 A2987 RMK AO2 SLP113 CU OMTNS NE-SE T01890022
KFCH 
20nm W 
042155Z AUTO 29008KT 10SM FEW110 19/02 A2988 RMK A01
TAF
KFAT 
16nm W 
041720Z 0418/0518 VRB04KT P6SM SCT100 FM042100 31009KT P6SM SCT050 BKN100 FM050300 31008KT P6SM VCSH SCT030 OVC070 PROB30 0503/0508 6SM -RA BKN030 OVC050 FM050800 28008KT P6SM -RA BKN030 OVC050 FM051200 13016G23KT P6SM -RA BKN030 OVC050
NOTAMs
Click for the latest NOTAMs
NOTAMs are issued by the DoD/FAA and will open in a separate window not controlled by AirNav.

 

 
 

Would you like to see your business listed on this page?

 If your business provides an interesting product or service to pilots, flight crews, aircraft, or users of the Peg Field Airport, you should consider listing it here.  To start the listing process, click on the button below
 
Add a business
 

Other Pages about Peg Field Airport

Update a link
 
Copyright © AirNav, LLC. All rights reserved. Privacy Policy  Contact